Time;durP1;ratioP1;P1;durP2;ratioP2;P2;SDS_P1;SDS_P2;PMS_P1;PMS_P2;Temp;Humidity;BMP_temperature;BMP_pressure;BME280_temperature;BME280_humidity;BME280_pressure;Samples;Min_cycle;Max_cycle;Signal;HPM_P1;HPM_P2
2021/10/15 00:02:16;;;;;;;;;10.50;10.50;;;;;20.86;39.59;101501.34;5017145;28;45347;-51
2021/10/15 00:04:41;;;;;;;;;9.75;9.75;;;;;20.88;39.51;101504.75;5016475;28;45570;-52
2021/10/15 00:07:06;;;;;;;;;12.75;11.50;;;;;20.87;39.45;101503.06;5017088;28;45504;-50
2021/10/15 00:09:32;;;;;;;;;11.00;11.00;;;;;20.88;39.80;101504.75;5015783;28;45275;-51
2021/10/15 00:11:57;;;;;;;;;13.00;11.00;;;;;20.89;39.87;101509.09;5017019;28;45670;-53
2021/10/15 00:14:23;;;;;;;;;8.00;8.00;;;;;20.88;39.34;101504.75;4999336;28;45439;-52
2021/10/15 00:16:48;;;;;;;;;7.00;6.00;;;;;20.87;39.33;101510.97;5016795;28;45362;-54
2021/10/15 00:19:14;;;;;;;;;11.75;10.00;;;;;20.88;39.91;101510.03;5016711;28;45446;-53
2021/10/15 00:21:40;;;;;;;;;10.50;9.75;;;;;20.88;39.81;101509.16;5016924;28;45309;-55
2021/10/15 00:24:05;;;;;;;;;9.75;9.75;;;;;20.85;39.33;101500.47;5017181;28;45535;-54
2021/10/15 00:26:30;;;;;;;;;11.50;10.50;;;;;20.89;39.85;101509.09;5016691;28;46844;-52
2021/10/15 00:28:56;;;;;;;;;13.00;11.50;;;;;20.89;39.94;101508.25;5016813;28;45426;-51
2021/10/15 00:31:21;;;;;;;;;11.75;11.75;;;;;20.88;39.48;101506.53;5016714;28;45321;-53
2021/10/15 00:33:46;;;;;;;;;12.25;10.00;;;;;20.87;39.48;101508.31;5016887;28;45611;-53
2021/10/15 00:36:12;;;;;;;;;11.00;10.25;;;;;20.88;40.05;101503.91;5016504;28;45423;-57
2021/10/15 00:38:37;;;;;;;;;16.00;12.75;;;;;20.88;40.19;101504.75;5016486;28;45384;-54
2021/10/15 00:41:03;;;;;;;;;12.75;11.25;;;;;20.88;39.56;101502.13;5016946;28;45399;-54
2021/10/15 00:43:28;;;;;;;;;13.75;10.75;;;;;20.88;40.06;101507.41;5016860;28;45364;-50
2021/10/15 00:45:53;;;;;;;;;14.00;11.50;;;;;20.88;39.56;101502.13;5016456;28;46022;-55
2021/10/15 00:48:19;;;;;;;;;15.75;13.25;;;;;20.87;40.12;101499.53;5016410;28;45520;-57
2021/10/15 00:50:48;;;;;;;;;10.75;10.75;;;;;20.88;39.86;101502.13;4998716;28;45298;-55
2021/10/15 00:53:14;;;;;;;;;12.00;10.00;;;;;20.87;40.16;101503.06;4998984;28;45308;-53
2021/10/15 00:55:42;;;;;;;;;14.00;12.75;;;;;20.89;39.58;101500.34;5016234;28;46361;-53
2021/10/15 00:58:08;;;;;;;;;12.00;11.50;;;;;20.87;39.79;101494.28;5016336;28;45385;-50
2021/10/15 01:00:33;;;;;;;;;16.75;13.00;;;;;20.86;39.65;101493.44;5016743;28;45354;-55
2021/10/15 01:02:59;;;;;;;;;14.00;11.50;;;;;20.88;40.06;101494.22;5016346;28;45675;-56
2021/10/15 01:05:24;;;;;;;;;9.00;7.25;;;;;20.87;39.83;101484.59;5016232;28;46382;-57
2021/10/15 01:07:50;;;;;;;;;14.50;13.50;;;;;20.87;40.03;101484.59;5016148;28;45455;-52
2021/10/15 01:10:16;;;;;;;;;13.25;12.50;;;;;20.87;40.11;101491.63;5016284;28;45397;-54
2021/10/15 01:12:43;;;;;;;;;13.50;11.50;;;;;20.88;39.60;101490.72;5016262;28;45326;-52
2021/10/15 01:15:09;;;;;;;;;11.50;11.50;;;;;20.87;39.68;101481.97;5016057;28;46511;-56
2021/10/15 01:17:34;;;;;;;;;15.75;14.00;;;;;20.85;40.07;101478.56;5019670;28;45308;-56
2021/10/15 01:19:59;;;;;;;;;10.25;9.75;;;;;20.87;40.24;101476.69;5019822;28;45238;-52
2021/10/15 01:22:27;;;;;;;;;16.25;12.00;;;;;20.85;40.02;101479.38;5019822;28;45278;-55
2021/10/15 01:24:54;;;;;;;;;16.50;12.75;;;;;20.85;39.98;101475.91;5019358;28;46498;-54
2021/10/15 01:27:19;;;;;;;;;12.75;12.25;;;;;20.85;40.05;101481.19;5019464;28;45451;-52
2021/10/15 01:29:45;;;;;;;;;15.00;11.50;;;;;20.87;39.83;101475.84;5019501;28;45434;-53
2021/10/15 01:32:13;;;;;;;;;14.75;14.50;;;;;20.85;39.80;101458.31;5019699;28;45397;-54
2021/10/15 01:34:38;;;;;;;;;14.50;12.00;;;;;20.85;39.80;101458.31;5019569;28;45474;-54
2021/10/15 01:37:04;;;;;;;;;12.75;11.50;;;;;20.85;40.18;101458.31;5019366;28;45547;-54
2021/10/15 01:39:30;;;;;;;;;12.75;9.75;;;;;20.85;39.78;101460.94;5019499;28;45291;-53
2021/10/15 01:41:55;;;;;;;;;10.50;9.50;;;;;20.85;39.73;101454.84;5019523;28;45234;-57
2021/10/15 01:44:20;;;;;;;;;12.50;11.00;;;;;20.84;40.09;101453.13;5019035;28;46064;-57
2021/10/15 01:46:46;;;;;;;;;13.25;13.00;;;;;20.84;39.96;101455.75;5019264;28;45416;-55
2021/10/15 01:49:11;;;;;;;;;14.25;11.00;;;;;20.87;39.81;101458.25;5019388;28;45380;-57
2021/10/15 01:51:37;;;;;;;;;11.00;10.50;;;;;20.90;40.48;101460.72;5019540;28;45536;-53
2021/10/15 01:54:02;;;;;;;;;10.25;10.25;;;;;20.93;39.92;101457.97;5018991;28;45429;-56
2021/10/15 01:56:28;;;;;;;;;13.75;11.75;;;;;20.97;39.86;101449.00;5001153;28;45436;-55
2021/10/15 01:58:53;;;;;;;;;12.50;11.50;;;;;21.03;39.95;101444.34;5019176;28;45352;-56
2021/10/15 02:01:18;;;;;;;;;15.00;12.25;;;;;21.07;40.17;101445.91;5019210;28;45495;-55
2021/10/15 02:03:44;;;;;;;;;11.50;11.50;;;;;21.13;40.34;101446.47;5018579;28;46583;-56
2021/10/15 02:06:09;;;;;;;;;14.00;12.00;;;;;21.15;40.31;101431.44;5019283;28;45298;-54
2021/10/15 02:08:35;;;;;;;;;12.00;12.00;;;;;21.23;40.08;101444.22;5018939;28;45325;-57
2021/10/15 02:11:00;;;;;;;;;11.50;10.75;;;;;21.29;39.84;101438.66;5019068;28;45475;-56
2021/10/15 02:13:26;;;;;;;;;14.75;12.00;;;;;21.33;40.00;101431.47;5018642;28;46468;-55
2021/10/15 02:15:51;;;;;;;;;9.75;9.75;;;;;21.36;40.14;101430.44;5018846;28;45818;-55
2021/10/15 02:18:17;;;;;;;;;9.25;9.00;;;;;21.42;40.17;101435.44;5018773;28;45597;-54
2021/10/15 02:20:43;;;;;;;;;11.25;11.25;;;;;21.46;40.09;101429.06;5018968;28;45271;-54
2021/10/15 02:23:08;;;;;;;;;11.00;10.25;;;;;21.51;39.62;101437.59;5018877;28;46709;-51
2021/10/15 02:25:34;;;;;;;;;10.00;10.00;;;;;21.54;39.84;101424.28;5018773;28;45398;-54
2021/10/15 02:27:59;;;;;;;;;9.25;9.25;;;;;21.57;39.71;101424.09;5018062;28;45294;-55
2021/10/15 02:30:24;;;;;;;;;11.25;11.25;;;;;21.60;39.86;101426.63;5018732;28;45238;-54
2021/10/15 02:32:50;;;;;;;;;11.25;9.50;;;;;21.64;39.61;101413.28;5018428;28;45468;-53
2021/10/15 02:35:17;;;;;;;;;11.75;10.00;;;;;21.67;39.74;101419.25;5018543;28;45194;-53
2021/10/15 02:37:43;;;;;;;;;14.75;13.50;;;;;21.70;39.64;101420.88;5019016;28;45424;-56
2021/10/15 02:40:09;;;;;;;;;11.00;9.25;;;;;21.73;39.78;101420.72;5019133;28;45590;-57
2021/10/15 02:42:35;;;;;;;;;12.00;11.00;;;;;21.74;39.68;101409.25;5018213;28;46155;-54
2021/10/15 02:45:01;;;;;;;;;11.75;10.00;;;;;21.73;39.54;101402.25;5018228;28;45459;-55
2021/10/15 02:47:26;;;;;;;;;12.50;10.75;;;;;21.76;39.78;101410.03;5018378;28;45392;-56
2021/10/15 02:49:51;;;;;;;;;11.50;10.25;;;;;21.77;39.52;101403.81;5018337;28;45309;-54
2021/10/15 02:52:17;;;;;;;;;9.50;9.50;;;;;21.77;39.62;101406.47;5018071;28;45408;-56
2021/10/15 02:54:43;;;;;;;;;12.50;12.50;;;;;21.79;39.35;101412.47;5018408;28;45447;-54
2021/10/15 02:57:09;;;;;;;;;12.00;11.75;;;;;21.79;39.66;101415.13;5018563;28;45294;-57
2021/10/15 02:59:34;;;;;;;;;10.50;9.75;;;;;21.80;39.63;101419.47;5018427;28;45226;-56
2021/10/15 03:01:59;;;;;;;;;9.00;8.00;;;;;21.81;39.59;101417.69;5017530;28;58583;-56
2021/10/15 03:04:25;;;;;;;;;11.75;11.75;;;;;21.81;39.66;101410.63;5017822;28;45321;-56
2021/10/15 03:06:50;;;;;;;;;10.75;9.75;;;;;21.82;39.14;101412.31;5018130;28;45353;-56
2021/10/15 03:09:16;;;;;;;;;12.25;10.25;;;;;21.82;39.63;101409.69;5018227;28;45646;-55
2021/10/15 03:11:41;;;;;;;;;11.00;10.75;;;;;21.82;39.37;101403.56;5018089;28;45346;-57
2021/10/15 03:14:06;;;;;;;;;9.75;9.00;;;;;21.82;39.24;101403.56;5017818;28;45329;-57
2021/10/15 03:16:32;;;;;;;;;10.25;8.00;;;;;21.83;39.59;101405.28;5017917;28;45521;-56
2021/10/15 03:18:57;;;;;;;;;10.50;10.50;;;;;21.83;39.49;101414.03;5017948;28;45317;-56
2021/10/15 03:21:22;;;;;;;;;8.75;8.75;;;;;21.81;39.24;101400.06;4999780;28;45974;-56
2021/10/15 03:23:48;;;;;;;;;10.00;9.25;;;;;21.82;39.67;101406.22;5017744;28;45374;-56
2021/10/15 03:26:13;;;;;;;;;10.25;10.00;;;;;21.81;39.32;101402.72;5017945;28;45356;-56
2021/10/15 03:28:39;;;;;;;;;14.25;12.00;;;;;21.80;39.59;101401.00;5017937;28;45568;-56
2021/10/15 03:31:04;;;;;;;;;13.00;9.75;;;;;21.81;39.19;101400.06;5017290;28;51430;-55
2021/10/15 03:33:29;;;;;;;;;9.75;9.75;;;;;21.81;39.29;101393.94;4999729;28;45390;-56
2021/10/15 03:35:55;;;;;;;;;9.75;9.75;;;;;21.80;39.39;101406.28;5017618;28;45492;-54
2021/10/15 03:38:20;;;;;;;;;12.25;10.25;;;;;21.79;39.51;101396.66;5016625;28;45396;-55
2021/10/15 03:40:46;;;;;;;;;11.50;10.50;;;;;21.80;39.51;101397.50;4999676;28;48261;-54
2021/10/15 03:43:11;;;;;;;;;12.75;10.25;;;;;21.81;39.26;101393.94;5017777;28;45317;-55
2021/10/15 03:45:36;;;;;;;;;14.00;11.00;;;;;21.80;39.28;101408.91;5017493;28;45427;-56
2021/10/15 03:48:02;;;;;;;;;12.00;9.75;;;;;21.80;39.46;101395.72;5017743;28;45399;-57
2021/10/15 03:50:27;;;;;;;;;12.50;10.25;;;;;21.80;39.55;101395.72;5017201;28;45530;-56
2021/10/15 03:52:53;;;;;;;;;13.25;12.25;;;;;21.80;39.72;101397.50;5017091;28;45247;-57
2021/10/15 03:55:18;;;;;;;;;11.50;11.50;;;;;21.80;39.71;101401.00;5017437;28;45215;-56
2021/10/15 03:57:43;;;;;;;;;12.25;11.50;;;;;21.79;39.41;101396.66;5017717;28;45589;-56
2021/10/15 04:00:12;;;;;;;;;13.25;9.25;;;;;21.80;39.53;101402.78;5017047;28;45339;-55
2021/10/15 04:02:44;;;;;;;;;9.50;9.50;;;;;21.78;39.42;101393.16;5016860;28;45408;-56
2021/10/15 04:05:11;;;;;;;;;13.50;9.50;;;;;21.78;39.66;101395.81;5017229;28;45421;-56
2021/10/15 04:07:36;;;;;;;;;8.50;7.25;;;;;21.76;39.56;101384.47;5017337;28;45571;-54
2021/10/15 04:10:04;;;;;;;;;16.25;12.50;;;;;21.75;39.57;101389.84;5016988;28;46417;-54
2021/10/15 04:12:29;;;;;;;;;10.00;9.00;;;;;21.74;39.33;101386.34;5016894;28;45895;-55
2021/10/15 04:14:55;;;;;;;;;10.00;9.25;;;;;21.75;39.70;101384.56;5017144;28;45346;-53
2021/10/15 04:17:20;;;;;;;;;12.50;11.25;;;;;21.73;39.66;101391.69;5017234;28;45500;-55
2021/10/15 04:19:45;;;;;;;;;11.00;10.50;;;;;21.73;39.64;101394.34;5017155;28;46067;-55
2021/10/15 04:22:11;;;;;;;;;13.00;12.00;;;;;21.71;39.61;101386.53;5032270;28;45446;-55
2021/10/15 04:24:37;;;;;;;;;15.25;14.50;;;;;21.70;39.56;101382.16;5016989;28;45343;-53
2021/10/15 04:27:03;;;;;;;;;14.25;14.00;;;;;21.69;39.67;101382.22;4999437;28;45476;-55
2021/10/15 04:29:28;;;;;;;;;15.25;12.50;;;;;21.69;39.84;101377.81;5016635;28;45310;-56
2021/10/15 04:31:54;;;;;;;;;16.25;13.00;;;;;21.67;39.66;101377.03;5016522;28;45256;-56
2021/10/15 04:34:19;;;;;;;;;14.50;14.25;;;;;21.66;39.74;101374.50;4999051;28;45798;-56
2021/10/15 04:36:44;;;;;;;;;14.75;14.75;;;;;21.67;39.39;101370.91;5017323;28;45554;-53
2021/10/15 04:39:10;;;;;;;;;16.50;16.50;;;;;21.64;39.38;101364.00;5016576;28;46267;-56
2021/10/15 04:41:35;;;;;;;;;17.00;15.50;;;;;21.65;39.52;101375.44;5016518;28;45428;-56
2021/10/15 04:44:00;;;;;;;;;18.50;17.00;;;;;21.61;39.18;101372.94;5016629;28;45415;-56
2021/10/15 04:46:27;;;;;;;;;17.50;15.50;;;;;21.61;39.36;101366.78;5032137;28;45580;-57
2021/10/15 04:48:53;;;;;;;;;19.25;17.75;;;;;21.57;39.51;101360.78;5016503;28;47069;-53
2021/10/15 04:51:18;;;;;;;;;16.50;16.00;;;;;21.58;39.36;101362.50;5016430;28;45313;-55
2021/10/15 04:53:43;;;;;;;;;21.25;18.25;;;;;21.57;39.49;101352.03;5016567;28;45448;-58
2021/10/15 04:56:09;;;;;;;;;21.00;19.00;;;;;21.55;39.43;101352.09;5016736;28;45574;-57
2021/10/15 04:58:34;;;;;;;;;20.25;18.75;;;;;21.54;39.79;101350.44;5016293;28;45412;-56
2021/10/15 05:00:59;;;;;;;;;20.25;20.25;;;;;21.53;39.35;101347.84;5016219;28;45411;-57
2021/10/15 05:03:25;;;;;;;;;21.00;17.00;;;;;21.52;39.45;101351.41;5016101;28;45545;-55
2021/10/15 05:05:50;;;;;;;;;20.00;18.00;;;;;21.50;39.41;101359.41;5016595;28;45360;-55
2021/10/15 05:08:16;;;;;;;;;22.75;22.50;;;;;21.48;39.64;101356.00;5016427;28;45518;-55
2021/10/15 05:10:44;;;;;;;;;22.75;20.75;;;;;21.49;39.93;101356.88;5016138;28;45396;-56
2021/10/15 05:13:11;;;;;;;;;25.75;22.00;;;;;21.47;40.13;101349.88;5016414;28;45379;-55
2021/10/15 05:15:37;;;;;;;;;26.75;25.75;;;;;21.46;40.27;101352.56;5016298;28;45265;-55
2021/10/15 05:18:02;;;;;;;;;4.75;3.50;;;;;21.44;41.10;101350.03;4998312;28;45600;-55
2021/10/15 05:20:28;;;;;;;;;24.25;24.25;;;;;21.44;40.90;101351.84;5016078;28;45305;-56
2021/10/15 05:22:53;;;;;;;;;29.00;27.50;;;;;21.42;41.39;101357.16;5016086;28;45397;-55
2021/10/15 05:25:19;;;;;;;;;27.25;24.50;;;;;21.43;41.16;101355.41;5016514;28;45502;-55
2021/10/15 05:27:44;;;;;;;;;24.25;23.75;;;;;21.41;40.97;101351.97;5015843;28;48398;-56
2021/10/15 05:30:10;;;;;;;;;27.75;23.50;;;;;21.42;41.29;101353.69;5031239;28;45369;-54
2021/10/15 05:32:37;;;;;;;;;27.25;24.50;;;;;21.41;41.32;101354.63;5016162;28;45423;-52
2021/10/15 05:35:04;;;;;;;;;26.75;25.00;;;;;21.39;40.98;101357.31;5016251;28;45508;-55
2021/10/15 05:37:29;;;;;;;;;24.25;22.50;;;;;21.39;40.79;101356.47;5015654;28;46116;-54
2021/10/15 05:39:55;;;;;;;;;23.50;20.75;;;;;21.39;41.01;101356.47;5015866;28;45346;-57
2021/10/15 05:42:20;;;;;;;;;23.50;21.50;;;;;21.39;40.61;101361.75;5016265;28;45634;-54
2021/10/15 05:44:47;;;;;;;;;21.25;21.25;;;;;21.36;40.73;101356.63;5016105;28;45346;-54
2021/10/15 05:47:13;;;;;;;;;26.50;22.25;;;;;21.35;40.62;101360.19;5015564;28;45752;-56
2021/10/15 05:49:39;;;;;;;;;25.00;23.50;;;;;21.36;40.40;101360.13;5015610;28;45394;-56
2021/10/15 05:52:11;;;;;;;;;25.75;22.75;;;;;21.35;40.83;101354.91;5015650;28;45358;-55
2021/10/15 06:00:07;;;;;;;;;26.75;23.50;;;;;21.33;40.83;101344.44;5015406;28;45807;-49
2021/10/15 06:02:35;;;;;;;;;20.00;20.00;;;;;21.32;40.47;101348.00;5017035;28;45402;-54
2021/10/15 06:15:55;;;;;;;;;28.50;24.00;;;;;21.28;40.67;101371.06;5019093;28;45388;-57
2021/10/15 06:18:22;;;;;;;;;26.25;23.00;;;;;21.28;40.51;101371.06;5018786;28;46428;-57
2021/10/15 06:20:49;;;;;;;;;25.00;24.00;;;;;21.28;40.06;101373.69;5018747;28;46001;-55
2021/10/15 06:23:15;;;;;;;;;24.00;22.00;;;;;21.26;40.32;101370.28;5018963;28;45385;-53
2021/10/15 06:25:41;;;;;;;;;25.25;22.50;;;;;21.26;40.20;101372.91;5019015;28;45482;-56
2021/10/15 06:28:08;;;;;;;;;23.75;20.75;;;;;21.25;40.26;101373.84;5018518;28;46458;-53
2021/10/15 06:30:34;;;;;;;;;24.75;20.50;;;;;21.24;40.53;101385.31;5000745;28;45353;-51
2021/10/15 06:32:59;;;;;;;;;22.25;20.50;;;;;21.24;40.55;101380.03;5018653;28;45309;-55
2021/10/15 06:35:25;;;;;;;;;30.75;24.00;;;;;21.24;40.04;101379.19;5018749;28;45571;-52
2021/10/15 06:37:51;;;;;;;;;28.50;20.25;;;;;21.23;40.35;101375.69;5018713;28;46249;-53
2021/10/15 06:40:17;;;;;;;;;21.50;19.50;;;;;21.23;40.35;101375.69;5017509;28;45753;-54
2021/10/15 06:42:43;;;;;;;;;25.25;21.75;;;;;21.23;40.41;101374.84;5000601;28;45470;-57
2021/10/15 06:45:09;;;;;;;;;25.75;22.00;;;;;21.21;40.53;101374.94;5018709;28;45427;-53
2021/10/15 06:47:35;;;;;;;;;27.25;22.50;;;;;21.22;40.25;101375.78;5018207;28;47575;-53
2021/10/15 06:50:00;;;;;;;;;21.50;20.25;;;;;21.22;40.35;101375.78;5018362;28;45347;-56
2021/10/15 06:52:26;;;;;;;;;18.75;17.75;;;;;21.21;40.49;101374.94;5018306;28;45436;-53
2021/10/15 06:54:51;;;;;;;;;17.50;16.75;;;;;21.21;40.44;101374.06;5017566;28;45364;-55
2021/10/15 06:57:17;;;;;;;;;20.75;20.00;;;;;21.24;40.85;101373.91;5018065;28;45478;-56
2021/10/15 06:59:43;;;;;;;;;20.00;17.25;;;;;21.24;40.66;101379.19;5018056;28;45466;-56
2021/10/15 07:02:09;;;;;;;;;17.75;16.50;;;;;21.23;40.78;101370.41;5018281;28;45798;-56
2021/10/15 07:04:34;;;;;;;;;12.50;9.50;;;;;21.23;40.35;101370.41;5018078;28;45472;-56
2021/10/15 07:07:00;;;;;;;;;23.50;19.25;;;;;21.23;40.45;101378.31;5016685;28;46045;-56
2021/10/15 07:09:26;;;;;;;;;20.00;16.25;;;;;21.23;40.66;101377.47;5017909;28;45383;-54
2021/10/15 07:11:51;;;;;;;;;19.00;18.50;;;;;21.21;41.03;101377.56;5018292;28;45247;-56
2021/10/15 07:14:17;;;;;;;;;17.25;16.50;;;;;21.21;40.54;101374.94;5018212;28;45580;-54
2021/10/15 07:16:42;;;;;;;;;18.25;16.25;;;;;21.24;40.52;101380.03;5017631;28;45478;-55
2021/10/15 07:19:08;;;;;;;;;19.00;17.25;;;;;21.24;40.94;101382.66;5017703;28;45355;-56
2021/10/15 07:21:34;;;;;;;;;23.50;21.75;;;;;21.24;41.18;101379.19;5017876;28;45417;-54
2021/10/15 07:24:00;;;;;;;;;20.25;17.75;;;;;21.25;40.85;101394.91;5017998;28;45554;-51
2021/10/15 07:26:25;;;;;;;;;22.25;20.25;;;;;21.25;40.73;101391.44;5017844;28;45555;-55
2021/10/15 07:28:50;;;;;;;;;19.50;17.50;;;;;21.23;40.74;101398.56;5017522;28;45445;-56
2021/10/15 07:31:16;;;;;;;;;19.25;18.50;;;;;21.24;40.99;101406.41;5017678;28;45331;-55
2021/10/15 07:33:42;;;;;;;;;17.75;17.25;;;;;21.24;40.91;101406.41;5017766;28;45604;-55
2021/10/15 07:36:07;;;;;;;;;24.00;20.00;;;;;21.24;40.93;101406.41;5017381;28;45612;-59
2021/10/15 07:38:33;;;;;;;;;20.50;19.25;;;;;21.25;40.55;101408.09;5017459;28;45187;-55
2021/10/15 07:40:58;;;;;;;;;23.25;18.75;;;;;21.24;41.34;101408.19;5017770;28;45184;-56
2021/10/15 07:43:23;;;;;;;;;18.00;18.00;;;;;21.24;40.99;101409.03;5018066;28;45539;-55
2021/10/15 07:45:49;;;;;;;;;20.75;16.75;;;;;21.24;40.95;101403.75;5017012;28;45371;-54
2021/10/15 07:48:14;;;;;;;;;17.50;17.50;;;;;21.22;41.08;101402.97;5017445;28;45477;-56
2021/10/15 07:50:40;;;;;;;;;19.00;17.50;;;;;21.22;40.96;101408.25;5017482;28;45306;-52
2021/10/15 07:53:05;;;;;;;;;19.25;15.25;;;;;21.24;41.28;101405.56;5017533;28;45228;-54
2021/10/15 07:55:31;;;;;;;;;18.00;16.00;;;;;21.24;41.17;101410.81;5017025;28;45279;-55
2021/10/15 07:57:56;;;;;;;;;18.50;16.00;;;;;21.24;41.34;101410.81;5016757;28;45362;-55
2021/10/15 08:00:21;;;;;;;;;19.50;15.75;;;;;21.21;41.14;101403.06;5017267;28;45273;-53
2021/10/15 08:02:47;;;;;;;;;17.00;16.00;;;;;21.22;41.27;101402.13;5017375;28;45399;-53
2021/10/15 08:05:14;;;;;;;;;20.50;17.00;;;;;21.23;40.99;101409.94;5016828;28;45397;-54
2021/10/15 08:07:40;;;;;;;;;15.75;15.75;;;;;21.22;41.30;101404.78;5017077;28;45435;-54
2021/10/15 08:10:06;;;;;;;;;20.50;16.25;;;;;21.24;40.86;101408.19;5017217;28;45361;-50
2021/10/15 08:12:32;;;;;;;;;16.50;15.50;;;;;21.23;40.75;101414.38;5017364;28;45507;-54
2021/10/15 08:14:58;;;;;;;;;15.25;15.25;;;;;21.23;41.12;101420.50;5032529;28;45592;-51
2021/10/15 08:17:24;;;;;;;;;17.75;16.00;;;;;21.23;41.32;101415.22;5017134;28;45285;-53
2021/10/15 08:19:49;;;;;;;;;18.25;16.75;;;;;21.22;41.33;101415.31;5017123;28;45378;-53
2021/10/15 08:22:15;;;;;;;;;17.25;17.25;;;;;21.24;41.07;101413.47;5017163;28;45575;-56
2021/10/15 08:24:41;;;;;;;;;16.25;16.00;;;;;21.24;41.11;101413.47;5016083;28;45952;-55
2021/10/15 08:27:07;;;;;;;;;14.75;14.50;;;;;21.23;41.62;101417.03;5016834;28;45238;-56
2021/10/15 08:29:37;;;;;;;;;16.50;15.75;;;;;21.21;40.80;101411.84;5016930;28;45501;-56
2021/10/15 08:32:03;;;;;;;;;15.00;14.25;;;;;21.22;41.34;101417.94;5016874;28;45239;-56
2021/10/15 08:34:28;;;;;;;;;14.75;13.00;;;;;21.23;41.12;101414.38;5016910;28;45614;-55
2021/10/15 08:36:55;;;;;;;;;19.25;18.50;;;;;21.23;41.14;101407.31;5016687;28;45442;-56
2021/10/15 08:39:23;;;;;;;;;15.00;15.00;;;;;21.21;41.29;101406.56;5016800;28;45464;-56
2021/10/15 08:41:49;;;;;;;;;16.00;14.75;;;;;21.21;41.41;101416.25;5016872;28;45473;-56
2021/10/15 08:44:14;;;;;;;;;18.00;16.50;;;;;21.21;40.88;101417.13;5016537;28;46324;-57
2021/10/15 08:46:40;;;;;;;;;15.50;13.75;;;;;21.22;41.00;101420.59;5016674;28;45390;-56
2021/10/15 08:49:05;;;;;;;;;16.50;15.50;;;;;21.22;41.29;101420.59;5016739;28;45422;-56
2021/10/15 08:51:31;;;;;;;;;15.25;15.25;;;;;21.21;41.02;101422.38;5016919;28;45993;-53
2021/10/15 08:54:01;;;;;;;;;14.50;14.50;;;;;21.23;41.18;101427.56;5016742;28;46100;-56
2021/10/15 08:56:30;;;;;;;;;17.75;16.00;;;;;21.22;41.32;101417.94;5016821;28;45237;-56
2021/10/15 08:58:59;;;;;;;;;17.50;16.00;;;;;21.19;41.34;101418.97;5016640;28;45672;-54
2021/10/15 09:01:26;;;;;;;;;13.50;12.25;;;;;21.21;41.14;101421.50;5016629;28;45514;-57
2021/10/15 09:04:19;;;;;;;;;15.00;13.75;;;;;21.21;40.88;101424.16;5016105;28;45327;-56
2021/10/15 09:06:49;;;;;;;;;16.00;14.25;;;;;21.23;41.33;101417.88;5016446;28;45335;-57
2021/10/15 09:09:26;;;;;;;;;15.00;13.75;;;;;21.23;41.34;101425.78;5016353;28;45408;-56
2021/10/15 09:11:51;;;;;;;;;13.50;13.00;;;;;21.22;41.10;101425.84;5016514;28;45319;-55
2021/10/15 09:14:25;;;;;;;;;14.25;13.50;;;;;21.23;40.92;101425.78;5016116;28;46184;-57
2021/10/15 09:17:01;;;;;;;;;15.00;13.75;;;;;21.24;41.39;101427.47;5016194;28;45390;-56
2021/10/15 09:19:32;;;;;;;;;14.50;13.50;;;;;21.24;41.28;101435.41;5016221;28;45434;-56
2021/10/15 09:22:05;;;;;;;;;14.75;14.75;;;;;21.24;41.07;101429.28;5016726;28;45475;-56
2021/10/15 09:24:53;;;;;;;;;15.50;14.75;;;;;21.25;41.20;101431.00;5016255;28;46667;-56
2021/10/15 09:27:38;;;;;;;;;13.25;13.25;;;;;21.24;41.13;101435.41;4998268;28;45917;-57
2021/10/15 09:30:03;;;;;;;;;14.75;12.75;;;;;21.25;41.36;101434.47;5016071;28;45418;-52
2021/10/15 09:32:33;;;;;;;;;15.00;13.00;;;;;21.24;41.38;101453.84;5016521;28;45340;-57
2021/10/15 09:34:59;;;;;;;;;10.50;10.50;;;;;21.25;41.29;101460.84;5016130;28;45330;-59
2021/10/15 09:37:27;;;;;;;;;13.50;13.50;;;;;21.25;40.81;101460.00;5017555;28;45282;-56
2021/10/15 09:40:06;;;;;;;;;14.25;13.00;;;;;21.26;41.24;101456.44;5019576;28;45478;-56
2021/10/15 09:42:32;;;;;;;;;12.75;11.50;;;;;21.26;41.11;101459.06;5019916;28;45491;-54
2021/10/15 09:45:05;;;;;;;;;14.75;12.00;;;;;21.25;41.07;101454.72;5019840;28;45530;-55
2021/10/15 09:47:33;;;;;;;;;15.00;14.50;;;;;21.25;40.81;101458.19;5019822;28;45575;-52
2021/10/15 09:50:01;;;;;;;;;15.50;12.75;;;;;21.26;41.39;101462.53;5019659;28;45407;-56
2021/10/15 09:52:28;;;;;;;;;10.75;10.75;;;;;21.26;41.20;101452.00;5019446;28;45239;-53
2021/10/15 09:54:56;;;;;;;;;16.00;14.50;;;;;21.27;41.31;101458.13;5018814;28;45511;-52
2021/10/15 09:57:38;;;;;;;;;14.00;13.00;;;;;21.26;41.10;101452.00;5019032;28;45890;-55
2021/10/15 10:00:10;;;;;;;;;10.00;9.25;;;;;21.27;41.04;101443.16;5019524;28;45326;-54
2021/10/15 10:02:36;;;;;;;;;15.25;13.50;;;;;21.26;41.36;101457.28;5019275;28;45437;-55
2021/10/15 10:05:04;;;;;;;;;13.25;13.25;;;;;21.26;40.92;101443.25;5019369;28;45305;-54
2021/10/15 10:07:33;;;;;;;;;14.25;13.50;;;;;21.27;41.00;101460.78;5019191;28;45458;-51
2021/10/15 10:09:58;;;;;;;;;15.25;13.75;;;;;21.27;41.26;101453.72;5019107;28;45186;-52
2021/10/15 10:12:23;;;;;;;;;15.75;13.50;;;;;21.24;41.08;101450.38;5018960;28;45222;-56
2021/10/15 10:14:49;;;;;;;;;12.50;11.75;;;;;21.28;41.15;101455.41;5018732;28;45284;-55
2021/10/15 10:17:21;;;;;;;;;11.25;11.25;;;;;21.27;41.09;101458.97;5018769;28;45375;-55
2021/10/15 10:19:50;;;;;;;;;17.75;13.00;;;;;21.28;41.28;101465.09;5018869;28;45305;-52
2021/10/15 10:22:19;;;;;;;;;12.00;11.00;;;;;21.27;41.10;101464.25;5019132;28;45627;-51
2021/10/15 10:24:49;;;;;;;;;9.75;9.75;;;;;21.27;41.16;101471.31;5018719;28;45712;-52
2021/10/15 10:27:31;;;;;;;;;12.00;12.00;;;;;21.27;40.77;101469.53;5018756;28;45187;-53
2021/10/15 10:29:57;;;;;;;;;14.75;13.25;;;;;21.28;41.29;101475.63;5018939;28;45305;-51
2021/10/15 10:32:26;;;;;;;;;8.50;8.50;;;;;21.27;41.26;101466.06;5018838;28;45270;-50
2021/10/15 10:34:52;;;;;;;;;11.50;9.50;;;;;21.26;41.14;101473.09;5000722;28;48098;-53
2021/10/15 10:37:19;;;;;;;;;15.25;12.75;;;;;21.26;41.24;101467.81;5018547;28;45376;-51
2021/10/15 10:39:46;;;;;;;;;14.00;11.50;;;;;21.26;41.06;101466.97;5018682;28;45479;-55
2021/10/15 10:42:12;;;;;;;;;12.25;12.25;;;;;21.26;41.18;101467.81;5018802;28;45395;-49
2021/10/15 10:44:48;;;;;;;;;13.75;12.25;;;;;21.26;41.11;101465.19;5018321;28;47492;-52
2021/10/15 10:47:24;;;;;;;;;12.25;9.50;;;;;21.26;41.10;101469.63;5018352;28;45877;-52
2021/10/15 10:50:02;;;;;;;;;14.50;11.75;;;;;21.26;41.30;101469.63;5018433;28;45248;-50
2021/10/15 10:52:27;;;;;;;;;11.00;10.50;;;;;21.24;41.20;101464.38;5018378;28;45398;-49
2021/10/15 10:54:53;;;;;;;;;9.25;9.25;;;;;21.26;40.93;101475.72;5000373;28;47176;-51
2021/10/15 10:57:23;;;;;;;;;12.25;11.25;;;;;21.26;41.19;101466.97;5018197;28;45490;-51
2021/10/15 10:59:51;;;;;;;;;11.75;11.75;;;;;21.25;41.18;101468.75;5018058;28;45208;-51
2021/10/15 11:02:21;;;;;;;;;11.00;11.00;;;;;21.26;40.78;101470.44;5018488;28;45889;-50
2021/10/15 11:04:52;;;;;;;;;9.50;9.50;;;;;21.26;41.40;101465.19;5017848;28;45670;-51
2021/10/15 11:07:20;;;;;;;;;14.00;12.75;;;;;21.26;40.91;101459.91;5018116;28;46067;-52
2021/10/15 11:09:59;;;;;;;;;11.25;11.00;;;;;21.28;41.25;101459.81;5018055;28;45428;-50
2021/10/15 11:12:27;;;;;;;;;12.25;8.25;;;;;21.28;40.96;101463.31;5018291;28;45358;-49
2021/10/15 11:15:04;;;;;;;;;11.25;10.75;;;;;21.29;40.85;101462.41;5017803;28;46382;-49
2021/10/15 11:17:30;;;;;;;;;11.50;11.50;;;;;21.30;41.14;101450.06;5017853;28;45432;-50
2021/10/15 11:20:11;;;;;;;;;10.25;9.25;;;;;21.31;41.23;101452.63;5017990;28;45363;-54
2021/10/15 11:22:38;;;;;;;;;10.50;9.00;;;;;21.30;41.23;101447.41;5018398;28;45294;-49
2021/10/15 11:25:05;;;;;;;;;12.50;11.00;;;;;21.32;41.07;101440.28;5017945;28;46555;-55
2021/10/15 11:27:31;;;;;;;;;15.00;12.00;;;;;21.33;40.93;101446.44;5017722;28;45945;-51